This is the latest recevied weather packets stored in our database for station/object K1TTC. If no packets are shown the sender has not sent any weather packets the latest 10 day(s).
| Time | Temp. | Humidity | Pressure | Rain* | Wind** | Luminosity | Snow |
|---|---|---|---|---|---|---|---|
| 1777989796 | 19.44° C | 53% | 1010.8 hPa | 0 mm | - | 795 W/m² | - |
| 1777989302 | 18.89° C | 54% | 1010.9 hPa | 0 mm | - | 345 W/m² | - |
| 1777988593 | 18.33° C | 57% | 1010.8 hPa | 0 mm | - | 798 W/m² | - |
| 1777987993 | 17.22° C | 58% | 1010.9 hPa | 0 mm | - | 642 W/m² | - |
| 1777987392 | 17.22° C | 57% | 1010.9 hPa | 0 mm | - | 107 W/m² | - |
| 1777986793 | 17.78° C | 56% | 1011.1 hPa | 0 mm | - | 100 W/m² | - |
| 1777986191 | 17.78° C | 54% | 1011.2 hPa | 0 mm | - | 67 W/m² | - |
| 1777985590 | 17.22° C | 56% | 1011 hPa | 0 mm | - | 619 W/m² | - |
| 1777984987 | 16.67° C | 56% | 1011 hPa | 0 mm | - | 526 W/m² | - |
| 1777984387 | 16.11° C | 57% | 1011 hPa | 0 mm | - | 629 W/m² | - |
| 1777983786 | 15.56° C | 58% | 1011 hPa | 0 mm | - | 587 W/m² | - |
| 1777983290 | 15.56° C | 58% | 1011 hPa | 0 mm | - | 179 W/m² | - |
| 1777982582 | 15.56° C | 59% | 1010.9 hPa | 0 mm | - | 160 W/m² | - |
| 1777981983 | 15° C | 60% | 1010.9 hPa | 0 mm | - | 192 W/m² | - |
| 1777981383 | 14.44° C | 61% | 1010.8 hPa | 0 mm | - | 176 W/m² | - |
| 1777980782 | 13.89° C | 62% | 1010.8 hPa | 0 mm | - | 70 W/m² | - |
| 1777980183 | 13.33° C | 62% | 1010.8 hPa | 0 mm | - | 60 W/m² | - |
| 1777979581 | 13.33° C | 63% | 1010.8 hPa | 0 mm | - | 63 W/m² | - |
| 1777978983 | 12.78° C | 64% | 1010.9 hPa | 0 mm | - | 90 W/m² | - |
| 1777978380 | 12.22° C | 64% | 1010.7 hPa | 0 mm | - | 53 W/m² | - |
| 1777977779 | 12.22° C | 64% | 1010.8 hPa | 0 mm | - | 84 W/m² | - |
| 1777977179 | 11.67° C | 64% | 1011 hPa | 0 mm | - | 70 W/m² | - |
| 1777976580 | 11.67° C | 64% | 1010.9 hPa | 0 mm | - | 35 W/m² | - |
| 1777976070 | 11.67° C | 64% | 1010.9 hPa | 0 mm | - | 28 W/m² | - |
| 1777975380 | 11.67° C | 64% | 1010.9 hPa | 0 mm | - | 12 W/m² | - |
* Rain latest hour (hover to see other rain measurements)
** Current wind speed in m/s (hover to see current wind gust speed)